West Viola, Kentucky
Current Conditions -  °F | °C
As of 11:15 PM on Friday 24 Oct 2014 (Local Time) from KM25 Reporting Station
Clear Clear  
Wind Chill: 54°   Ceiling: Unl
Heat Index: 54°   Visibility: 7mi
Dew Point: 52°   Wind: 3mph
Humidity: 94%   Direction: 220°SW
Pressure: 30.09"   Gusts: NA
Location:  36.8496°N, 88.6894°W
Report Text: KM25 250415Z AUTO 22003KT 7SM CLR 12/11 A3009 RMK AO2
Loading
Personal Weather Stations






























Interactive Weather Map
Tropical Storm Tracking
New forecast layout! Learn more

10-Day Weather Forecast

Advertisements
Track Severe Weather on mobile